Monday, January 21, 2019, 5:53 PM EST
Back to Local

KGNR, Greenville

Location: Greenville, ME, United States Lat: 45.467
Local Time: 5:53 PM EST (22:53 GMT) Lon: -69.583
Time Zone: US/Eastern Elev: 1400 ft

Show me the last for .
Show Decoded

2019-01-21 16:56 METAR KGNR 212156Z AUTO 31012G22KT M20/M26 A2960 RMK AO1 SLP062 T12001256 =
2019-01-21 15:56 METAR KGNR 212056Z AUTO 31014G21KT M20/M25 A2957 RMK AO1 SLP053 T12001250 53030
                 =
2019-01-21 14:56 METAR KGNR 211956Z AUTO 31014G22KT M19/M26 A2953 RMK AO1 PK WND 30026/1928
                 SLP039 T11941256 =
2019-01-21 13:56 METAR KGNR 211856Z AUTO 31015G26KT M19/M26 A2950 RMK AO1 PK WND 32030/1842
                 SLP027 T11941256 =
2019-01-21 12:56 METAR KGNR 211756Z AUTO 31013G28KT M19/M25 A2948 RMK AO1 PK WND 32028/1751
                 SLP019 T11941250 11178 21194 50005 =
2019-01-21 11:56 METAR KGNR 211656Z AUTO 31018G23KT M19/M24 A2948 RMK AO1 PK WND 30027/1615
                 SLP020 T11891244 =
2019-01-21 10:56 METAR KGNR 211556Z AUTO 31013G22KT M19/M24 A2947 RMK AO1 PK WND 31026/1516
                 SLP016 T11941244 =
2019-01-21 09:56 METAR KGNR 211456Z AUTO 31014G22KT M19/M24 A2946 RMK AO1 PK WND 32027/1407
                 SLP014 T11941244 51033 =
2019-01-21 08:56 METAR KGNR 211356Z AUTO 31014G23KT M19/M24 A2943 RMK AO1 SLP005 T11941239 =
2019-01-21 07:56 METAR KGNR 211256Z AUTO 31015G23KT M18/M23 A2940 RMK AO1 PK WND 30028/1220
                 SLP993 T11831233 =
2019-01-21 06:56 METAR KGNR 211156Z AUTO 32017G29KT M18/M22 A2936 RMK AO1 PK WND 32029/1151
                 SLP979 70146 T11781222 11150 21178 51018 =
2019-01-21 05:56 METAR KGNR 211056Z AUTO 34017G30KT M17/M21 A2935 RMK AO1 PK WND 33033/1022
                 SLP975 T11671211 =
2019-01-21 04:56 METAR KGNR 210956Z AUTO 33018G26KT M17/M21 A2932 RMK AO1 PK WND 32030/0937
                 SLP966 T11671211 =
2019-01-21 03:56 METAR KGNR 210856Z AUTO 33015G28KT M17/M21 A2931 RMK AO1 PK WND 33032/0807
                 SLP960 T11671211 51022 =
2019-01-21 02:56 METAR KGNR 210756Z AUTO 33022G32KT M16/M21 A2929 RMK AO1 PK WND 34035/0717
                 SLP957 T11611206 =
2019-01-21 01:56 METAR KGNR 210656Z AUTO 33020G29KT M15/M19 A2928 RMK AO1 PK WND 34030/0611
                 SLP951 T11501194 =
2019-01-21 00:56 METAR KGNR 210556Z AUTO 33017G27KT M15/M19 A2924 RMK AO1 PK WND 33030/0544
                 SLP937 60005 T11501189 11144 21172 50006 =
2019-01-20 23:56 METAR KGNR 210456Z AUTO 33017G29KT M15/M19 A2924 RMK AO1 PK WND 32029/0455
                 SLP938 T11501189 411501200 =
2019-01-20 22:56 METAR KGNR 210356Z AUTO 33017G25KT M16/M19 A2925 RMK AO1 PK WND 33026/0326
                 SLP938 T11561194 =
2019-01-20 21:56 METAR KGNR 210256Z AUTO 33011G21KT M16/M19 A2922 RMK AO1 PK WND 32026/0245
                 SLP930 P0001 60005 T11561194 56015 =
2019-01-20 20:56 METAR KGNR 210156Z AUTO 32017G26KT M17/M21 A2924 RMK AO1 PK WND 33026/0151
                 SLP939 P0003 T11671206 =
2019-01-20 19:56 METAR KGNR 210056Z AUTO 32020G27KT M17/M21 A2924 RMK AO1 PK WND 34027/0040
                 SLP936 P0001 T11671206 =
2019-01-20 18:56 METAR KGNR 202356Z AUTO 34009G22KT M17/M21 A2927 RMK AO1 SLP947 P0004 60050
                 T11671206 11167 21200 56011 $ =
2019-01-20 17:56 METAR KGNR 202256Z AUTO 35013G25KT M17/M22 A2927 RMK AO1 SLP949 P0009 T11721217
                 $ =

Support USWX by starting your Amazon purchase here.